Meteo Giornale » Osservazioni meteo Uruguay » Carrasco

ore: 15:00 - Osservazioni Meteo Carrasco
Lat. 34° 50' S Lon. 56° 0' W Alt. 32 metri s.l.m.

poco_nuvoloso

15 °C

Poco Nuvoloso

Temp. 24 Ore

8 °C

17 °C

Sud/Sud-Est

14.8 Km/h

Dew point 13 °C

Umidità 87 %

Visibilità  10 Km

Il sole sorge alle ore 07:02

Il sole tramonta alle ore 18:25

Data e Ora Cielo e Fenomeni T °C DP °C Um. % Pres. hPa Vis. km Vento km/h
Oggi h: 15:00 poco_nuvoloso Poco Nuvoloso 15 13 87 1019 10 S/SE 14.8
Oggi h: 14:00 poco_nuvoloso Poco Nuvoloso 16 13 82 1019 10 SE 13
Oggi h: 13:00 poco_nuvoloso Poco Nuvoloso 16 13 82 1020 10 SE 11.1
Oggi h: 12:00 poco_nuvoloso Poco Nuvoloso 15 13 87 1020 10 SE 13
Oggi h: 11:00 molto_nuvoloso Molto Nuvoloso 15 13 87 1020 7 S/SE 11.1
Oggi h: 10:00 foschia Foschia 14 12 87 1020 5 S 11.1
Oggi h: 09:46 foschia Foschia 14 13 93 1020 4 S/SE 11.1
Oggi h: 09:00 foschia Foschia 13 13 100 1020 2 S 11.1
Oggi h: 08:26 nebbia Nebbia 12 11 93 1020 0.9 SO 7.4
Oggi h: 08:00 nebbia Nebbia 10 9 93 1019 0 N 5.5
Oggi h: 07:48 nebbia Nebbia 10 10 100 1019 0.8 N 3.7
Oggi h: 07:24 nebbia Nebbia 8 8 100 1019 0.4 N 3.7
Oggi h: 07:00 nebbia Nebbia 8 7 93 1018 0.1 N 3.7
Oggi h: 06:11 nebbia Nebbia 8 8 100 1018 0.2 N 5.5
Oggi h: 06:00 nebbia Nebbia 10 10 100 1018 0.2 N 0
Oggi h: 05:39 nebbia Nebbia 10 10 100 1018 0.3 N 0
Oggi h: 05:00 nebbia Banco di nebbia Foschia 9 9 100 1018 0 N 5.5
Oggi h: 04:24 nebbia Nebbia 9 8 93 1018 0.2 O/SO 7.4
Oggi h: 04:00 nebbia Nebbia a tratti Foschia 10 10 100 1018 1 N 5.5
Oggi h: 03:39 nebbia Nebbia Foschia 10 9 93 1018 2 N 3.7
Oggi h: 03:00 foschia Foschia 8 7 93 1018 2 O 7.4
Oggi h: 02:13 nebbia Nebbia Foschia 10 10 100 1018 3 N 3.7
Oggi h: 02:00 nebbia Nebbia 10 9 93 1018 8 N 3.7
Oggi h: 01:00 nebbia Nebbia 10 10 100 1018 8 N 0
Oggi h: 00:00 sereno Sereno 10 9 93 1018 10 O/SO 9.3
Ieri h: 23:00 sereno Sereno 12 11 93 1018 0 N 5.5
Ieri h: 22:00 sereno Sereno 13 11 87 1017 0 E 13
Ieri h: 21:00 poco_nuvoloso Poco Nuvoloso 12 11 93 1017 10 N 5.5
Ieri h: 20:00 poco_nuvoloso Poco Nuvoloso 14 13 93 1017 10 N 5.5
Ieri h: 19:00 sereno Sereno 14 12 87 1016 10 SE 7.4
Ieri h: 18:00 sereno Sereno 15 13 87 1016 10 S/SE 11.1
Ieri h: 17:00 sereno Sereno 17 13 77 1016 10 SE 9.3
Ieri h: 16:00 poco_nuvoloso Poco Nuvoloso 16 13 82 1016 10 S/SE 11.1